ジャカルタ の空港の天気 - METARとTAF

スカルノハッタ国際空港 ( WIII / CGK ) - インドネシア バンテン州、Cengkareng ( ジャカルタ近郊)
飛行場実況気象(Metar)
観測時間11/22 19:30 WIB (11/22 12:30 UTC)
風向・風速南西 2m/s
視程6000m
天気現象
全天の4割程度の雲 雲底高度 640m
気温28℃
湿度79%
気圧1006hPa
METARWIII 221230Z 22004KT 6000 SCT021 28/24 Q1006 NOSIG
過去の天気等 Google飛行場航空写真 Wunderground天気予報

過去48時間のMETAR

飛行場予報(TAF)
発表時間: 11/22 18:00 WIB (11/22 11:00 UTC)
予報対象時間: 22日19時 WIB ~ 24日1時 WIB
風向・風速南西 4m/s
視程7,000m
全天の4割程度の雲 雲底高度 610m
22日21時 WIB ~ 22日23時 WIB に徐々に
風向・風速南南西 2m/s
視程5,000m
TAF WIII 221100Z 2212/2318 23007KT 7000 SCT020
BECMG 2214/2216 20004KT 5000